Mississippi Enterprise — WDE2542 — position and weather

sailwx.info

Track history (hours):
 
Tides and Currents Weather Stations Pressure Air Temp Water Temp Dewpoint Dewpoint Depression Visibility Wind Speed Wind Dir Waves Ship Positions

Mississippi Enterprise

Owner: U.S. United Ocean Services, LLC, Tampa, FL. More information available from US FCC via Universal Licensing System and Coast Guard Vessel Documentation Center.

Last reported at 2016-May-30 12:33 UTC. Time now 2016-May-30 18:25 UTC.
Position N 27°54' W 082°26'.

Length 187 m; draft 11.2 m.

Type: Cargo ship. MMSI: 369813000.

Date/timePositionNaut miles runAvg speedWind from/ knotsBaromVisibWave heightAir tempDewpointWater temp
2016-May-30 12:33N 27°54' W 082°26'1 1.4
2016-May-30 11:29N 27°55' W 082°25'0 0.0
2016-May-30 10:32N 27°55' W 082°25'0 0.0
2016-May-30 09:32N 27°55' W 082°25'0 0.0
2016-May-30 08:32N 27°55' W 082°25'0 0.0
2016-May-30 07:32N 27°55' W 082°25'0 0.0
2016-May-30 06:32N 27°55' W 082°25'0 0.0
2016-May-30 05:32N 27°55' W 082°25'0 0.0
2016-May-30 04:32N 27°55' W 082°25'0 0.0
2016-May-30 03:32N 27°55' W 082°25'0 0.0
2016-May-30 02:32N 27°55' W 082°25'0 0.0
2016-May-30 01:32N 27°55' W 082°25'0 0.0
2016-May-30 00:32N 27°55' W 082°25'0 0.0
2016-May-29 23:32N 27°55' W 082°25'0 0.0
2016-May-29 22:32N 27°55' W 082°25'0 0.0
2016-May-29 21:32N 27°55' W 082°25'0 0.0
2016-May-29 20:32N 27°55' W 082°25'0 0.0
2016-May-29 19:29N 27°55' W 082°25'0 0.2
2016-May-29 18:33N 27°55' W 082°26'1 0.7
2016-May-29 17:30N 27°56' W 082°26'0 0.0
2016-May-29 16:33N 27°56' W 082°26'0 0.0
2016-May-29 15:33N 27°56' W 082°26'0 0.0
2016-May-29 14:33N 27°56' W 082°26'0 0.0
2016-May-29 13:33N 27°56' W 082°26'0 0.0
2016-May-29 12:33N 27°56' W 082°26'0 0.0
2016-May-29 11:33N 27°56' W 082°26'0 0.0
2016-May-29 10:33N 27°56' W 082°26'0 0.0
2016-May-29 09:33N 27°56' W 082°26'0 0.0
2016-May-29 08:33N 27°56' W 082°26'0 0.0
2016-May-29 07:33N 27°56' W 082°26'0 0.0
2016-May-29 06:33N 27°56' W 082°26'0 0.0
2016-May-29 05:33N 27°56' W 082°26'0 0.0
2016-May-29 04:33N 27°56' W 082°26'0 0.0
2016-May-29 03:33N 27°56' W 082°26'0 0.0
2016-May-29 02:33N 27°56' W 082°26'0 0.0
2016-May-29 01:33N 27°56' W 082°26'0 0.0
2016-May-29 00:33N 27°56' W 082°26'0 0.0
2016-May-28 23:33N 27°56' W 082°26'0 0.0
2016-May-28 22:33N 27°56' W 082°26'0 0.0
2016-May-28 21:33N 27°56' W 082°26'0 0.0
2016-May-28 20:33N 27°56' W 082°26'0 0.0
2016-May-28 19:33N 27°56' W 082°26'0 0.0
2016-May-28 18:33N 27°56' W 082°26'0 0.0
2016-May-28 17:33N 27°56' W 082°26'0 0.0
2016-May-28 16:33N 27°56' W 082°26'0 0.1
2016-May-28 15:33N 27°56' W 082°26'0 0.0
2016-May-28 14:33N 27°56' W 082°26'0 0.0
2016-May-28 13:33N 27°56' W 082°26'0 0.0
2016-May-28 12:33N 27°56' W 082°26'0 0.0
2016-May-28 11:33N 27°56' W 082°26'0 0.0
2016-May-28 10:33N 27°56' W 082°26'0 0.0
2016-May-28 09:33N 27°56' W 082°26'0 0.0
2016-May-28 08:33N 27°56' W 082°26'0 0.0
2016-May-28 07:33N 27°56' W 082°26'0 0.0
2016-May-28 06:33N 27°56' W 082°26'0 0.0
2016-May-28 05:33N 27°56' W 082°26'0 0.0
2016-May-28 04:33N 27°56' W 082°26'0 0.0
2016-May-28 03:33N 27°56' W 082°26'0 0.0
2016-May-28 02:33N 27°56' W 082°26'0 0.0
2016-May-28 01:33N 27°56' W 082°26'3 3.5
2016-May-28 00:33N 27°52' W 082°27'5 0.2
2016-May-26 22:05N 27°48' W 082°25'0 0.0
2016-May-26 00:29N 27°48' W 082°25'0 0.0
2016-May-25 22:29N 27°48' W 082°25'0 0.0
2016-May-25 21:26N 27°48' W 082°25'0 0.0
2016-May-25 11:29N 27°48' W 082°25'0 0.0
2016-May-25 06:26N 27°48' W 082°25'0 0.0
2016-May-25 05:32N 27°48' W 082°25'0 0.0
2016-May-25 03:23N 27°48' W 082°25'0 0.0
2016-May-25 02:20N 27°48' W 082°25'0 0.0
2016-May-25 01:32N 27°48' W 082°25'1 0.1
2016-May-24 11:33N 27°49' W 082°26'  
Track history (hours):
 
Tides and Currents Weather Stations Pressure Air Temp Water Temp Dewpoint Dewpoint Depression Visibility Wind Speed Wind Dir Waves Ship Positions

Mississippi Enterprise

Owner: U.S. United Ocean Services, LLC, Tampa, FL. More information available from US FCC via Universal Licensing System and Coast Guard Vessel Documentation Center.

Last reported at 2016-May-30 12:33 UTC. Time now 2016-May-30 18:25 UTC.
Position N 27°54' W 082°26'.

Length 187 m; draft 11.2 m.

Type: Cargo ship. MMSI: 369813000.

Date/timePositionNaut miles runAvg speedWind from/ knotsBaromVisibWave heightAir tempDewpointWater temp
2016-May-30 12:33N 27°54' W 082°26'1 1.4
2016-May-30 11:29N 27°55' W 082°25'0 0.0
2016-May-30 10:32N 27°55' W 082°25'0 0.0
2016-May-30 09:32N 27°55' W 082°25'0 0.0
2016-May-30 08:32N 27°55' W 082°25'0 0.0
2016-May-30 07:32N 27°55' W 082°25'0 0.0
2016-May-30 06:32N 27°55' W 082°25'0 0.0
2016-May-30 05:32N 27°55' W 082°25'0 0.0
2016-May-30 04:32N 27°55' W 082°25'0 0.0
2016-May-30 03:32N 27°55' W 082°25'0 0.0
2016-May-30 02:32N 27°55' W 082°25'0 0.0
2016-May-30 01:32N 27°55' W 082°25'0 0.0
2016-May-30 00:32N 27°55' W 082°25'0 0.0
2016-May-29 23:32N 27°55' W 082°25'0 0.0
2016-May-29 22:32N 27°55' W 082°25'0 0.0
2016-May-29 21:32N 27°55' W 082°25'0 0.0
2016-May-29 20:32N 27°55' W 082°25'0 0.0
2016-May-29 19:29N 27°55' W 082°25'0 0.2
2016-May-29 18:33N 27°55' W 082°26'1 0.7
2016-May-29 17:30N 27°56' W 082°26'0 0.0
2016-May-29 16:33N 27°56' W 082°26'0 0.0
2016-May-29 15:33N 27°56' W 082°26'0 0.0
2016-May-29 14:33N 27°56' W 082°26'0 0.0
2016-May-29 13:33N 27°56' W 082°26'0 0.0
2016-May-29 12:33N 27°56' W 082°26'0 0.0
2016-May-29 11:33N 27°56' W 082°26'0 0.0
2016-May-29 10:33N 27°56' W 082°26'0 0.0
2016-May-29 09:33N 27°56' W 082°26'0 0.0
2016-May-29 08:33N 27°56' W 082°26'0 0.0
2016-May-29 07:33N 27°56' W 082°26'0 0.0
2016-May-29 06:33N 27°56' W 082°26'0 0.0
2016-May-29 05:33N 27°56' W 082°26'0 0.0
2016-May-29 04:33N 27°56' W 082°26'0 0.0
2016-May-29 03:33N 27°56' W 082°26'0 0.0
2016-May-29 02:33N 27°56' W 082°26'0 0.0
2016-May-29 01:33N 27°56' W 082°26'0 0.0
2016-May-29 00:33N 27°56' W 082°26'0 0.0
2016-May-28 23:33N 27°56' W 082°26'0 0.0
2016-May-28 22:33N 27°56' W 082°26'0 0.0
2016-May-28 21:33N 27°56' W 082°26'0 0.0
2016-May-28 20:33N 27°56' W 082°26'0 0.0
2016-May-28 19:33N 27°56' W 082°26'0 0.0
2016-May-28 18:33N 27°56' W 082°26'0 0.0
2016-May-28 17:33N 27°56' W 082°26'0 0.0
2016-May-28 16:33N 27°56' W 082°26'0 0.1
2016-May-28 15:33N 27°56' W 082°26'0 0.0
2016-May-28 14:33N 27°56' W 082°26'0 0.0
2016-May-28 13:33N 27°56' W 082°26'0 0.0
2016-May-28 12:33N 27°56' W 082°26'0 0.0
2016-May-28 11:33N 27°56' W 082°26'0 0.0
2016-May-28 10:33N 27°56' W 082°26'0 0.0
2016-May-28 09:33N 27°56' W 082°26'0 0.0
2016-May-28 08:33N 27°56' W 082°26'0 0.0
2016-May-28 07:33N 27°56' W 082°26'0 0.0
2016-May-28 06:33N 27°56' W 082°26'0 0.0
2016-May-28 05:33N 27°56' W 082°26'0 0.0
2016-May-28 04:33N 27°56' W 082°26'0 0.0
2016-May-28 03:33N 27°56' W 082°26'0 0.0
2016-May-28 02:33N 27°56' W 082°26'0 0.0
2016-May-28 01:33N 27°56' W 082°26'3 3.5
2016-May-28 00:33N 27°52' W 082°27'5 0.2
2016-May-26 22:05N 27°48' W 082°25'0 0.0
2016-May-26 00:29N 27°48' W 082°25'0 0.0
2016-May-25 22:29N 27°48' W 082°25'0 0.0
2016-May-25 21:26N 27°48' W 082°25'0 0.0
2016-May-25 11:29N 27°48' W 082°25'0 0.0
2016-May-25 06:26N 27°48' W 082°25'0 0.0
2016-May-25 05:32N 27°48' W 082°25'0 0.0
2016-May-25 03:23N 27°48' W 082°25'0 0.0
2016-May-25 02:20N 27°48' W 082°25'0 0.0
2016-May-25 01:32N 27°48' W 082°25'1 0.1
2016-May-24 11:33N 27°49' W 082°26'  

Dump ship's entire track history